createdAt,value
2017-09-21T00:00:17.089Z,0
2017-09-21T00:01:26.458Z,0
2017-09-21T00:02:36.429Z,0
2017-09-21T00:03:45.444Z,0
2017-09-21T00:04:54.779Z,0
2017-09-21T00:06:03.792Z,0
2017-09-21T00:07:12.805Z,0
2017-09-21T00:08:22.139Z,0
2017-09-21T00:09:30.832Z,0
2017-09-21T00:10:39.543Z,0
2017-09-21T00:11:48.885Z,0
2017-09-21T00:12:57.901Z,0
2017-09-21T00:14:07.236Z,0
2017-09-21T00:15:16.252Z,0
2017-09-21T00:16:25.265Z,0
2017-09-21T00:17:34.283Z,0
2017-09-21T00:18:42.975Z,0
2017-09-21T00:19:51.991Z,0
2017-09-21T00:21:01.329Z,0
2017-09-21T00:22:10.660Z,0
2017-09-21T00:23:19.683Z,0
2017-09-21T00:24:29.017Z,0
2017-09-21T00:25:38.033Z,0
2017-09-21T00:26:47.690Z,0
2017-09-21T00:27:56.382Z,0
2017-09-21T00:29:05.077Z,0
2017-09-21T00:30:13.774Z,0
2017-09-21T00:31:22.468Z,0
2017-09-21T00:32:31.801Z,0
2017-09-21T00:33:40.819Z,0
2017-09-21T00:34:49.512Z,0
2017-09-21T00:35:59.177Z,0
2017-09-21T00:37:08.512Z,0
2017-09-21T00:38:17.208Z,0
2017-09-21T00:39:25.900Z,0
2017-09-21T00:40:34.916Z,0
2017-09-21T00:41:43.929Z,0
2017-09-21T00:42:53.260Z,0
2017-09-21T00:44:02.278Z,0
2017-09-21T00:45:11.610Z,0
2017-09-21T00:46:20.622Z,0
2017-09-21T00:47:29.316Z,0
2017-09-21T00:48:38.649Z,0
2017-09-21T00:49:47.662Z,0
2017-09-21T00:50:56.995Z,0
2017-09-21T00:52:06.653Z,0
2017-09-21T00:53:15.667Z,0
2017-09-21T00:54:24.362Z,0
2017-09-21T00:55:33.378Z,0
2017-09-21T00:56:42.712Z,0
2017-09-21T00:57:52.047Z,0
2017-09-21T00:59:01.061Z,0
2017-09-21T01:00:09.753Z,0
2017-09-21T01:01:18.444Z,0
2017-09-21T01:02:27.457Z,0
2017-09-21T01:03:36.477Z,0
2017-09-21T01:04:45.174Z,0
2017-09-21T01:05:54.218Z,0
2017-09-21T01:07:02.883Z,0
2017-09-21T01:08:11.898Z,0
2017-09-21T01:09:20.591Z,0
2017-09-21T01:10:29.601Z,0
2017-09-21T01:11:38.294Z,0
2017-09-21T01:12:46.987Z,0
2017-09-21T01:13:56.636Z,0
2017-09-21T01:15:05.652Z,0
2017-09-21T01:16:14.349Z,0
2017-09-21T01:17:23.683Z,0
2017-09-21T01:18:32.698Z,0
2017-09-21T01:19:42.034Z,0
2017-09-21T01:20:52.011Z,0
2017-09-21T01:22:01.025Z,0
2017-09-21T01:23:09.719Z,0
2017-09-21T01:24:19.054Z,0
2017-09-21T01:25:28.068Z,0
2017-09-21T01:26:37.084Z,0
2017-09-21T01:27:46.422Z,0
2017-09-21T01:28:55.117Z,0
2017-09-21T01:30:04.134Z,0
2017-09-21T01:31:13.792Z,0
2017-09-21T01:32:22.488Z,0
2017-09-21T01:33:31.505Z,0
2017-09-21T01:34:40.518Z,0
2017-09-21T01:35:49.532Z,0
2017-09-21T01:36:58.549Z,0
2017-09-21T01:38:07.564Z,0
2017-09-21T01:39:16.612Z,0
2017-09-21T01:40:25.592Z,0
2017-09-21T01:41:34.605Z,0
2017-09-21T01:42:43.298Z,0
2017-09-21T01:43:51.992Z,0
2017-09-21T01:45:00.684Z,0
2017-09-21T01:46:09.699Z,0
2017-09-21T01:47:19.030Z,0
2017-09-21T01:48:27.725Z,0
2017-09-21T01:49:36.426Z,0
2017-09-21T01:50:45.774Z,0
2017-09-21T01:51:54.468Z,0
2017-09-21T01:53:04.122Z,0
2017-09-21T01:54:13.459Z,0
2017-09-21T01:55:22.476Z,0
2017-09-21T01:56:31.169Z,0
2017-09-21T01:57:40.186Z,0
2017-09-21T01:58:49.523Z,0
2017-09-21T01:59:58.219Z,0
2017-09-21T02:01:06.913Z,0
2017-09-21T02:02:16.251Z,0
2017-09-21T02:03:25.265Z,0
2017-09-21T02:04:33.959Z,0
2017-09-21T02:05:43.299Z,0
2017-09-21T02:06:52.312Z,0
2017-09-21T02:08:01.010Z,0
2017-09-21T02:09:10.024Z,0
2017-09-21T02:10:19.036Z,0
2017-09-21T02:11:28.053Z,0
2017-09-21T02:12:37.068Z,0
2017-09-21T02:13:46.411Z,0
2017-09-21T02:14:55.425Z,0
2017-09-21T02:16:05.077Z,0
2017-09-21T02:17:15.052Z,0
2017-09-21T02:18:24.390Z,0
2017-09-21T02:19:33.085Z,0
2017-09-21T02:20:42.098Z,0
2017-09-21T02:21:51.433Z,0
2017-09-21T02:23:00.449Z,0
2017-09-21T02:24:09.782Z,0
2017-09-21T02:25:18.795Z,0
2017-09-21T02:26:27.810Z,0
2017-09-21T02:27:36.829Z,0
2017-09-21T02:28:45.848Z,0
2017-09-21T02:29:55.182Z,0
2017-09-21T02:31:03.876Z,0
2017-09-21T02:32:13.550Z,0
2017-09-21T02:33:22.564Z,0
2017-09-21T02:34:31.582Z,0
2017-09-21T02:35:40.918Z,0
2017-09-21T02:36:50.258Z,0
2017-09-21T02:37:59.910Z,0
2017-09-21T02:39:09.578Z,0
2017-09-21T02:40:18.908Z,0
2017-09-21T02:41:28.563Z,0
2017-09-21T02:42:37.895Z,0
2017-09-21T02:43:46.589Z,0
2017-09-21T02:44:55.280Z,0
2017-09-21T02:46:03.975Z,0
2017-09-21T02:47:13.312Z,0
2017-09-21T02:48:22.324Z,0
2017-09-21T02:49:31.665Z,0
2017-09-21T02:50:40.681Z,0
2017-09-21T02:51:50.334Z,0
2017-09-21T02:52:59.670Z,0
2017-09-21T02:54:09.339Z,0
2017-09-21T02:55:18.358Z,0
2017-09-21T02:56:27.369Z,0
2017-09-21T02:57:36.064Z,0
2017-09-21T02:58:45.077Z,0
2017-09-21T02:59:54.090Z,0
2017-09-21T03:01:02.784Z,0
2017-09-21T03:02:11.799Z,0
2017-09-21T03:03:21.134Z,0
2017-09-21T03:04:30.147Z,0
2017-09-21T03:05:38.841Z,0
2017-09-21T03:06:48.494Z,0
2017-09-21T03:07:57.506Z,0
2017-09-21T03:09:06.839Z,0
2017-09-21T03:10:16.171Z,0
2017-09-21T03:11:25.184Z,0
2017-09-21T03:12:34.202Z,0
2017-09-21T03:13:43.214Z,0
2017-09-21T03:14:52.549Z,0
2017-09-21T03:16:01.244Z,0
2017-09-21T03:17:09.936Z,0
2017-09-21T03:18:18.629Z,0
2017-09-21T03:19:28.604Z,0
2017-09-21T03:20:37.940Z,0
2017-09-21T03:21:46.634Z,0
2017-09-21T03:22:55.650Z,0
2017-09-21T03:24:04.662Z,0
2017-09-21T03:25:13.997Z,0
2017-09-21T03:26:24.291Z,0
2017-09-21T03:27:33.625Z,0
2017-09-21T03:28:42.342Z,0
2017-09-21T03:29:51.039Z,0
2017-09-21T03:31:00.372Z,0
2017-09-21T03:32:09.066Z,0
2017-09-21T03:33:17.771Z,0
2017-09-21T03:34:26.459Z,0
2017-09-21T03:35:35.474Z,0
2017-09-21T03:36:44.487Z,0
2017-09-21T03:37:53.501Z,0
2017-09-21T03:39:02.517Z,0
2017-09-21T03:40:11.540Z,0
2017-09-21T03:41:20.556Z,0
2017-09-21T03:42:29.250Z,0
2017-09-21T03:43:37.951Z,0
2017-09-21T03:44:46.980Z,0
2017-09-21T03:45:56.632Z,0
2017-09-21T03:47:05.326Z,0
2017-09-21T03:48:14.020Z,0
2017-09-21T03:49:23.353Z,0
2017-09-21T03:50:32.689Z,0
2017-09-21T03:51:41.703Z,0
2017-09-21T03:52:50.719Z,0
2017-09-21T03:53:59.736Z,0
2017-09-21T03:55:08.430Z,0
2017-09-21T03:56:17.450Z,0
2017-09-21T03:57:26.143Z,0
2017-09-21T03:58:36.117Z,0
2017-09-21T03:59:45.450Z,0
2017-09-21T04:00:54.788Z,0
2017-09-21T04:02:03.804Z,0
2017-09-21T04:03:13.136Z,0
2017-09-21T04:04:22.150Z,0
2017-09-21T04:05:30.859Z,0
2017-09-21T04:06:39.872Z,0
2017-09-21T04:07:48.901Z,0
2017-09-21T04:08:58.236Z,0
2017-09-21T04:10:07.570Z,0
2017-09-21T04:11:17.553Z,0
2017-09-21T04:12:26.886Z,0
2017-09-21T04:13:35.898Z,0
2017-09-21T04:14:44.596Z,0
2017-09-21T04:15:53.290Z,0
2017-09-21T04:17:02.952Z,0
2017-09-21T04:18:11.647Z,0
2017-09-21T04:19:21.621Z,0
2017-09-21T04:20:30.955Z,0
2017-09-21T04:21:39.969Z,0
2017-09-21T04:22:48.666Z,0
2017-09-21T04:23:57.679Z,0
2017-09-21T04:25:06.693Z,0
2017-09-21T04:26:16.035Z,0
2017-09-21T04:27:25.046Z,0
2017-09-21T04:28:34.060Z,0
2017-09-21T04:29:43.721Z,0
2017-09-21T04:30:52.733Z,0
2017-09-21T04:32:01.426Z,0
2017-09-21T04:33:10.124Z,0
2017-09-21T04:34:19.458Z,0
2017-09-21T04:35:28.793Z,0
2017-09-21T04:36:38.128Z,0
2017-09-21T04:37:47.782Z,0
2017-09-21T04:38:57.115Z,0
2017-09-21T04:40:05.811Z,0
2017-09-21T04:41:14.835Z,0
2017-09-21T04:42:23.526Z,0
2017-09-21T04:43:32.544Z,0
2017-09-21T04:44:41.882Z,0
2017-09-21T04:45:50.896Z,0
2017-09-21T04:47:00.275Z,0
2017-09-21T04:48:09.287Z,0
2017-09-21T04:49:18.312Z,0
2017-09-21T04:50:27.327Z,0
2017-09-21T04:51:36.023Z,0
2017-09-21T04:52:45.356Z,0
2017-09-21T04:53:54.690Z,0
2017-09-21T04:55:04.024Z,0
2017-09-21T04:56:13.043Z,0
2017-09-21T04:57:22.055Z,0
2017-09-21T04:58:31.073Z,0
2017-09-21T04:59:39.770Z,0
2017-09-21T05:00:48.783Z,0
2017-09-21T05:01:58.766Z,0
2017-09-21T05:03:07.459Z,0
2017-09-21T05:04:16.473Z,0
2017-09-21T05:05:25.816Z,0
2017-09-21T05:06:35.152Z,0
2017-09-21T05:07:44.162Z,0
2017-09-21T05:08:53.498Z,0
2017-09-21T05:10:02.829Z,0
2017-09-21T05:11:12.499Z,0
2017-09-21T05:12:22.156Z,0
2017-09-21T05:13:31.493Z,0
2017-09-21T05:14:41.143Z,0
2017-09-21T05:15:50.476Z,0
2017-09-21T05:16:59.172Z,0
2017-09-21T05:18:08.183Z,0
2017-09-21T05:19:16.877Z,0
2017-09-21T05:20:25.895Z,0
2017-09-21T05:21:34.912Z,0
2017-09-21T05:22:43.927Z,0
2017-09-21T05:23:52.625Z,0
2017-09-21T05:25:01.317Z,0
2017-09-21T05:26:10.012Z,0
2017-09-21T05:27:18.704Z,0
2017-09-21T05:28:28.369Z,0
2017-09-21T05:29:37.706Z,0
2017-09-21T05:30:46.400Z,0
2017-09-21T05:31:55.414Z,0
2017-09-21T05:33:04.744Z,0
2017-09-21T05:34:13.439Z,0
2017-09-21T05:35:22.457Z,0
2017-09-21T05:36:31.795Z,5
2017-09-21T05:37:40.489Z,5
2017-09-21T05:38:49.183Z,5
2017-09-21T05:39:58.515Z,5
2017-09-21T05:41:07.209Z,5
2017-09-21T05:42:16.543Z,5
2017-09-21T05:43:25.558Z,5
2017-09-21T05:44:34.890Z,5
2017-09-21T05:45:44.221Z,5
2017-09-21T05:46:53.237Z,5
2017-09-21T05:48:03.220Z,5
2017-09-21T05:49:12.241Z,5
2017-09-21T05:50:20.936Z,5
2017-09-21T05:51:30.269Z,5
2017-09-21T05:52:38.964Z,10
2017-09-21T05:53:47.976Z,10
2017-09-21T05:54:56.673Z,10
2017-09-21T05:56:05.688Z,10
2017-09-21T05:57:15.020Z,10
2017-09-21T05:58:24.356Z,10
2017-09-21T05:59:33.368Z,10
2017-09-21T06:00:42.381Z,10
2017-09-21T06:01:51.716Z,10
2017-09-21T06:03:00.732Z,10
2017-09-21T06:04:10.071Z,10
2017-09-21T06:05:19.400Z,10
2017-09-21T06:06:28.736Z,10
2017-09-21T06:07:37.749Z,10
2017-09-21T06:08:46.764Z,15
2017-09-21T06:09:55.796Z,15
2017-09-21T06:11:04.798Z,15
2017-09-21T06:12:13.812Z,15
2017-09-21T06:13:22.827Z,15
2017-09-21T06:14:32.487Z,15
2017-09-21T06:15:41.501Z,15
2017-09-21T06:16:50.834Z,15
2017-09-21T06:18:00.170Z,15
2017-09-21T06:19:09.184Z,15
2017-09-21T06:20:18.522Z,15
2017-09-21T06:21:27.858Z,20
2017-09-21T06:22:37.192Z,20
2017-09-21T06:23:46.530Z,20
2017-09-21T06:24:55.864Z,20
2017-09-21T06:26:05.197Z,20
2017-09-21T06:27:14.530Z,20
2017-09-21T06:28:23.547Z,20
2017-09-21T06:29:32.562Z,20
2017-09-21T06:30:41.899Z,20
2017-09-21T06:31:50.913Z,20
2017-09-21T06:32:59.609Z,20
2017-09-21T06:34:08.942Z,25
2017-09-21T06:35:18.289Z,25
2017-09-21T06:36:27.947Z,25
2017-09-21T06:37:37.602Z,30
2017-09-21T06:38:46.614Z,30
2017-09-21T06:39:55.308Z,30
2017-09-21T06:41:04.324Z,35
2017-09-21T06:42:13.018Z,35
2017-09-21T06:43:22.034Z,35
2017-09-21T06:44:31.048Z,35
2017-09-21T06:45:40.384Z,35
2017-09-21T06:46:49.438Z,35
2017-09-21T06:47:58.775Z,40
2017-09-21T06:49:07.789Z,40
2017-09-21T06:50:16.483Z,40
2017-09-21T06:51:25.818Z,40
2017-09-21T06:52:34.514Z,40
2017-09-21T06:53:43.539Z,40
2017-09-21T06:54:53.199Z,45
2017-09-21T06:56:01.894Z,45
2017-09-21T06:57:11.229Z,45
2017-09-21T06:58:19.921Z,45
2017-09-21T06:59:29.258Z,45
2017-09-21T07:00:38.273Z,45
2017-09-21T07:01:46.965Z,50
2017-09-21T07:02:55.986Z,50
2017-09-21T07:04:04.680Z,50
2017-09-21T07:05:14.019Z,50
2017-09-21T07:06:23.357Z,50
2017-09-21T07:07:33.012Z,50
2017-09-21T07:08:42.029Z,55
2017-09-21T07:09:51.042Z,55
2017-09-21T07:11:00.056Z,55
2017-09-21T07:12:09.389Z,55
2017-09-21T07:13:18.723Z,60
2017-09-21T07:14:27.739Z,60
2017-09-21T07:15:36.755Z,60
2017-09-21T07:16:45.449Z,60
2017-09-21T07:17:54.465Z,60
2017-09-21T07:19:03.480Z,60
2017-09-21T07:20:12.497Z,60
2017-09-21T07:21:22.148Z,65
2017-09-21T07:22:31.484Z,65
2017-09-21T07:23:40.818Z,80
2017-09-21T07:24:49.845Z,90
2017-09-21T07:25:59.498Z,90
2017-09-21T07:27:08.516Z,85
2017-09-21T07:28:17.531Z,105
2017-09-21T07:29:26.550Z,310
2017-09-21T07:30:35.566Z,540
2017-09-21T07:31:44.581Z,645
2017-09-21T07:32:53.618Z,680
2017-09-21T07:34:02.635Z,700
2017-09-21T07:35:11.652Z,735
2017-09-21T07:36:20.990Z,720
2017-09-21T07:37:30.324Z,780
2017-09-21T07:38:39.021Z,780
2017-09-21T07:39:48.038Z,765
2017-09-21T07:40:57.370Z,770
2017-09-21T07:42:06.709Z,760
2017-09-21T07:43:15.724Z,780
2017-09-21T07:44:25.059Z,800
2017-09-21T07:45:33.755Z,795
2017-09-21T07:46:42.451Z,845
2017-09-21T07:47:51.790Z,885
2017-09-21T07:49:00.803Z,875
2017-09-21T07:50:09.820Z,895
2017-09-21T07:51:18.834Z,895
2017-09-21T07:52:27.852Z,875
2017-09-21T07:53:37.830Z,895
2017-09-21T07:54:46.541Z,885
2017-09-21T07:55:55.880Z,855
2017-09-21T07:57:04.899Z,910
2017-09-21T07:58:13.922Z,900
2017-09-21T07:59:22.619Z,885
2017-09-21T08:00:32.282Z,955
2017-09-21T08:01:40.982Z,985
2017-09-21T08:02:50.325Z,980
2017-09-21T08:03:59.663Z,925
2017-09-21T08:05:09.317Z,970
2017-09-21T08:06:18.345Z,975
2017-09-21T08:07:27.681Z,935
2017-09-21T08:08:36.704Z,1000
2017-09-21T08:09:45.756Z,1030
2017-09-21T08:10:54.454Z,895
2017-09-21T08:12:04.449Z,890
2017-09-21T08:13:13.784Z,850
2017-09-21T08:14:22.801Z,790
2017-09-21T08:15:32.456Z,770
2017-09-21T08:16:41.476Z,740
2017-09-21T08:17:50.813Z,680
2017-09-21T08:19:00.150Z,660
2017-09-21T08:20:09.167Z,685
2017-09-21T08:21:18.184Z,705
2017-09-21T08:22:27.203Z,555
2017-09-21T08:23:35.900Z,365
2017-09-21T08:24:45.558Z,285
2017-09-21T08:25:54.584Z,170
2017-09-21T08:27:03.941Z,110
2017-09-21T08:28:13.258Z,105
2017-09-21T08:29:22.278Z,105
2017-09-21T08:30:31.936Z,100
2017-09-21T08:31:40.633Z,100
2017-09-21T08:32:50.290Z,100
2017-09-21T08:33:59.307Z,100
2017-09-21T08:35:08.643Z,100
2017-09-21T08:36:17.980Z,100
2017-09-21T08:37:27.016Z,100
2017-09-21T08:38:36.690Z,100
2017-09-21T08:39:46.664Z,100
2017-09-21T08:40:56.041Z,100
2017-09-21T08:42:05.350Z,95
2017-09-21T08:43:14.371Z,95
2017-09-21T08:44:24.039Z,95
2017-09-21T08:45:33.054Z,95
2017-09-21T08:46:42.070Z,95
2017-09-21T08:47:51.087Z,95
2017-09-21T08:49:00.104Z,95
2017-09-21T08:50:09.128Z,95
2017-09-21T08:51:18.787Z,95
2017-09-21T08:52:27.808Z,95
2017-09-21T08:53:36.506Z,95
2017-09-21T08:54:45.849Z,95
2017-09-21T08:55:54.544Z,95
2017-09-21T08:57:03.559Z,95
2017-09-21T08:58:12.898Z,95
2017-09-21T08:59:21.919Z,95
2017-09-21T09:00:30.937Z,95
2017-09-21T09:01:39.952Z,100
2017-09-21T09:02:48.651Z,95
2017-09-21T09:03:57.670Z,95
2017-09-21T09:05:06.365Z,95
2017-09-21T09:06:15.062Z,100
2017-09-21T09:07:24.397Z,100
2017-09-21T09:08:33.095Z,100
2017-09-21T09:09:42.110Z,100
2017-09-21T09:10:51.135Z,100
2017-09-21T09:12:00.150Z,100
2017-09-21T09:13:09.489Z,105
2017-09-21T09:14:18.183Z,105
2017-09-21T09:15:26.881Z,105
2017-09-21T09:16:35.576Z,105
2017-09-21T09:17:44.592Z,105
2017-09-21T09:18:53.612Z,105
2017-09-21T09:20:02.949Z,105
2017-09-21T09:21:11.971Z,105
2017-09-21T09:22:20.993Z,105
2017-09-21T09:23:30.009Z,110
2017-09-21T09:24:39.025Z,110
2017-09-21T09:25:48.043Z,110
2017-09-21T09:26:57.378Z,115
2017-09-21T09:28:06.075Z,110
2017-09-21T09:29:15.731Z,115
2017-09-21T09:30:26.033Z,125
2017-09-21T09:31:34.729Z,145
2017-09-21T09:32:43.430Z,155
2017-09-21T09:33:52.127Z,325
2017-09-21T09:35:01.142Z,1000
2017-09-21T09:36:10.483Z,1205
2017-09-21T09:37:19.500Z,1305
2017-09-21T09:38:28.519Z,1380
2017-09-21T09:39:37.534Z,1360
2017-09-21T09:40:46.238Z,1390
2017-09-21T09:41:55.900Z,1410
2017-09-21T09:43:04.918Z,1375
2017-09-21T09:44:13.935Z,1320
2017-09-21T09:45:22.638Z,1350
2017-09-21T09:46:31.337Z,1440
2017-09-21T09:47:40.359Z,1345
2017-09-21T09:48:49.378Z,1365
2017-09-21T09:49:58.398Z,1225
2017-09-21T09:51:07.739Z,1170
2017-09-21T09:52:17.082Z,1380
2017-09-21T09:53:26.107Z,1500
2017-09-21T09:54:34.808Z,1410
2017-09-21T09:55:44.146Z,1400
2017-09-21T09:56:53.493Z,1415
2017-09-21T09:58:02.517Z,1420
2017-09-21T09:59:11.540Z,1385
2017-09-21T10:00:20.242Z,1385
2017-09-21T10:01:29.266Z,1405
2017-09-21T10:02:38.611Z,1405
2017-09-21T10:03:47.313Z,1465
2017-09-21T10:04:56.335Z,1455
2017-09-21T10:06:05.675Z,1445
2017-09-21T10:07:15.019Z,1450
2017-09-21T10:08:24.041Z,1390
2017-09-21T10:09:33.401Z,1470
2017-09-21T10:10:43.065Z,1455
2017-09-21T10:11:51.769Z,1490
2017-09-21T10:13:00.791Z,1470
2017-09-21T10:14:09.822Z,1425
2017-09-21T10:15:18.523Z,1470
2017-09-21T10:16:27.865Z,1410
2017-09-21T10:17:37.206Z,1470
2017-09-21T10:18:46.228Z,1520
2017-09-21T10:19:54.932Z,1505
2017-09-21T10:21:03.635Z,1550
2017-09-21T10:22:13.292Z,1485
2017-09-21T10:23:22.313Z,1545
2017-09-21T10:24:31.336Z,380
2017-09-21T10:25:41.006Z,1375
2017-09-21T10:26:49.709Z,1480
2017-09-21T10:27:58.408Z,1435
2017-09-21T10:29:07.115Z,1445
2017-09-21T10:30:16.138Z,1415
2017-09-21T10:31:25.160Z,1475
2017-09-21T10:32:33.861Z,1060
2017-09-21T10:33:43.205Z,1475
2017-09-21T10:34:52.547Z,1475
2017-09-21T10:36:01.253Z,1520
2017-09-21T10:37:10.277Z,1470
2017-09-21T10:38:19.622Z,1430
2017-09-21T10:39:29.284Z,1320
2017-09-21T10:40:38.306Z,1450
2017-09-21T10:41:47.973Z,1385
2017-09-21T10:42:56.996Z,1430
2017-09-21T10:44:05.703Z,1475
2017-09-21T10:45:14.406Z,1525
2017-09-21T10:46:24.070Z,585
2017-09-21T10:47:33.736Z,1480
2017-09-21T10:48:42.439Z,1560
2017-09-21T10:49:51.143Z,1520
2017-09-21T10:51:00.166Z,1520
2017-09-21T10:52:09.507Z,1475
2017-09-21T10:53:18.531Z,1320
2017-09-21T10:54:27.235Z,1445
2017-09-21T10:55:36.584Z,1465
2017-09-21T10:56:45.608Z,1510
2017-09-21T10:57:54.636Z,1485
2017-09-21T10:59:03.981Z,1520
2017-09-21T11:00:13.005Z,1505
2017-09-21T11:01:22.665Z,1395
2017-09-21T11:02:31.690Z,1325
2017-09-21T11:03:41.036Z,1410
2017-09-21T11:04:50.380Z,1415
2017-09-21T11:05:59.725Z,1380
2017-09-21T11:07:08.751Z,1420
2017-09-21T11:08:18.413Z,1380
2017-09-21T11:09:27.123Z,1390
2017-09-21T11:10:36.146Z,1385
2017-09-21T11:11:45.170Z,1285
2017-09-21T11:12:54.193Z,1275
2017-09-21T11:14:03.536Z,1245
2017-09-21T11:15:12.560Z,1215
2017-09-21T11:16:21.263Z,1290
2017-09-21T11:17:29.967Z,1260
2017-09-21T11:18:38.989Z,1210
2017-09-21T11:19:48.335Z,1255
2017-09-21T11:20:57.358Z,1255
2017-09-21T11:22:06.386Z,1240
2017-09-21T11:23:15.088Z,1115
2017-09-21T11:24:23.792Z,1205
2017-09-21T11:25:32.813Z,1270
2017-09-21T11:26:41.833Z,1240
2017-09-21T11:27:50.859Z,1300
2017-09-21T11:29:00.839Z,1335
2017-09-21T11:30:09.539Z,1415
2017-09-21T11:31:18.563Z,1370
2017-09-21T11:32:27.586Z,1355
2017-09-21T11:33:36.293Z,1400
2017-09-21T11:34:45.965Z,1420
2017-09-21T11:35:54.667Z,1370
2017-09-21T11:37:03.690Z,1410
2017-09-21T11:38:13.354Z,1385
2017-09-21T11:39:22.380Z,1375
2017-09-21T11:40:31.083Z,1300
2017-09-21T11:41:40.745Z,1300
2017-09-21T11:42:49.767Z,1280
2017-09-21T11:43:58.787Z,1210
2017-09-21T11:45:07.491Z,1085
2017-09-21T11:46:17.153Z,1140
2017-09-21T11:47:26.504Z,1150
2017-09-21T11:48:35.847Z,1180
2017-09-21T11:49:44.870Z,1000
2017-09-21T11:50:54.533Z,445
2017-09-21T11:52:03.878Z,215
2017-09-21T11:53:13.218Z,165
2017-09-21T11:54:22.574Z,140
2017-09-21T11:55:31.920Z,130
2017-09-21T11:56:40.620Z,125
2017-09-21T11:57:49.960Z,130
2017-09-21T11:58:59.308Z,120
2017-09-21T12:00:08.652Z,110
2017-09-21T12:01:17.993Z,110
2017-09-21T12:02:27.021Z,105
2017-09-21T12:03:36.368Z,100
2017-09-21T12:04:45.388Z,100
2017-09-21T12:05:55.367Z,100
2017-09-21T12:07:04.069Z,100
2017-09-21T12:08:13.730Z,100
2017-09-21T12:09:23.075Z,100
2017-09-21T12:10:33.055Z,100
2017-09-21T12:11:41.754Z,100
2017-09-21T12:12:50.778Z,100
2017-09-21T12:13:59.798Z,100
2017-09-21T12:15:09.458Z,100
2017-09-21T12:16:18.476Z,100
2017-09-21T12:17:27.496Z,95
2017-09-21T12:18:36.197Z,95
2017-09-21T12:19:45.213Z,95
2017-09-21T12:20:54.236Z,95
2017-09-21T12:22:02.938Z,95
2017-09-21T12:23:12.278Z,100
2017-09-21T12:24:21.616Z,95
2017-09-21T12:25:30.633Z,95
2017-09-21T12:26:39.653Z,95
2017-09-21T12:27:48.352Z,95
2017-09-21T12:28:57.382Z,95
2017-09-21T12:30:06.728Z,90
2017-09-21T12:31:15.752Z,90
2017-09-21T12:32:25.088Z,90
2017-09-21T12:33:34.115Z,90
2017-09-21T12:34:43.779Z,90
2017-09-21T12:35:52.830Z,80
2017-09-21T12:37:02.180Z,75
2017-09-21T12:38:11.202Z,75
2017-09-21T12:39:20.861Z,80
2017-09-21T12:40:30.840Z,80
2017-09-21T12:41:39.859Z,75
2017-09-21T12:42:48.560Z,75
2017-09-21T12:43:57.921Z,75
2017-09-21T12:45:07.260Z,70
2017-09-21T12:46:17.244Z,70
2017-09-21T12:47:26.261Z,70
2017-09-21T12:48:35.281Z,70
2017-09-21T12:49:44.302Z,70
2017-09-21T12:50:53.969Z,70
2017-09-21T12:52:02.988Z,70
2017-09-21T12:53:12.332Z,70
2017-09-21T12:54:21.351Z,70
2017-09-21T12:55:30.690Z,70
2017-09-21T12:56:39.387Z,70
2017-09-21T12:57:48.733Z,65
2017-09-21T12:58:58.389Z,65
2017-09-21T13:00:07.085Z,65
2017-09-21T13:01:15.783Z,65
2017-09-21T13:02:25.443Z,60
2017-09-21T13:03:34.464Z,60
2017-09-21T13:04:43.164Z,65
2017-09-21T13:05:52.825Z,60
2017-09-21T13:07:01.845Z,60
2017-09-21T13:08:10.544Z,60
2017-09-21T13:09:20.208Z,65
2017-09-21T13:10:28.905Z,65
2017-09-21T13:11:38.247Z,60
2017-09-21T13:12:47.585Z,60
2017-09-21T13:13:56.603Z,50
2017-09-21T13:15:05.941Z,50
2017-09-21T13:16:15.281Z,65
2017-09-21T13:17:24.949Z,65
2017-09-21T13:18:34.285Z,70
2017-09-21T13:19:42.984Z,75
2017-09-21T13:20:51.683Z,75
2017-09-21T13:22:01.025Z,70
2017-09-21T13:23:10.688Z,70
2017-09-21T13:24:20.034Z,65
2017-09-21T13:25:29.370Z,65
2017-09-21T13:26:38.706Z,70
2017-09-21T13:27:48.043Z,65
2017-09-21T13:28:57.066Z,60
2017-09-21T13:30:06.399Z,60
2017-09-21T13:31:15.099Z,55
2017-09-21T13:32:24.117Z,55
2017-09-21T13:33:34.099Z,55
2017-09-21T13:34:43.437Z,55
2017-09-21T13:35:52.451Z,55
2017-09-21T13:37:01.472Z,60
2017-09-21T13:38:10.488Z,55
2017-09-21T13:39:19.506Z,60
2017-09-21T13:40:28.521Z,60
2017-09-21T13:41:37.218Z,65
2017-09-21T13:42:46.235Z,65
2017-09-21T13:43:55.252Z,60
2017-09-21T13:45:03.950Z,55
2017-09-21T13:46:12.647Z,60
2017-09-21T13:47:21.993Z,60
2017-09-21T13:48:31.012Z,60
2017-09-21T13:49:40.030Z,60
2017-09-21T13:50:48.726Z,60
2017-09-21T13:51:57.742Z,55
2017-09-21T13:53:06.759Z,55
2017-09-21T13:54:15.778Z,50
2017-09-21T13:55:24.476Z,50
2017-09-21T13:56:33.815Z,45
2017-09-21T13:57:42.830Z,45
2017-09-21T13:58:51.526Z,45
2017-09-21T14:00:00.866Z,40
2017-09-21T14:01:10.204Z,40
2017-09-21T14:02:19.224Z,40
2017-09-21T14:03:27.923Z,40
2017-09-21T14:04:37.262Z,40
2017-09-21T14:05:46.280Z,40
2017-09-21T14:06:55.617Z,40
2017-09-21T14:08:04.959Z,40
2017-09-21T14:09:13.978Z,40
2017-09-21T14:10:23.648Z,40
2017-09-21T14:11:32.677Z,40
2017-09-21T14:12:41.378Z,35
2017-09-21T14:13:50.405Z,35
2017-09-21T14:15:00.063Z,35
2017-09-21T14:16:09.400Z,40
2017-09-21T14:17:18.413Z,35
2017-09-21T14:18:27.432Z,40
2017-09-21T14:19:36.449Z,40
2017-09-21T14:20:45.468Z,35
2017-09-21T14:21:54.484Z,35
2017-09-21T14:23:03.502Z,35
2017-09-21T14:24:12.517Z,35
2017-09-21T14:25:21.538Z,35
2017-09-21T14:26:30.554Z,35
2017-09-21T14:27:39.893Z,35
2017-09-21T14:28:49.236Z,35
2017-09-21T14:29:58.250Z,35
2017-09-21T14:31:07.268Z,35
2017-09-21T14:32:16.606Z,35
2017-09-21T14:33:25.623Z,35
2017-09-21T14:34:34.640Z,30
2017-09-21T14:35:44.293Z,30
2017-09-21T14:36:52.993Z,30
2017-09-21T14:38:01.692Z,30
2017-09-21T14:39:10.390Z,30
2017-09-21T14:40:19.087Z,30
2017-09-21T14:41:28.453Z,30
2017-09-21T14:42:38.114Z,30
2017-09-21T14:43:46.811Z,30
2017-09-21T14:44:55.510Z,30
2017-09-21T14:46:04.208Z,30
2017-09-21T14:47:13.549Z,30
2017-09-21T14:48:22.889Z,30
2017-09-21T14:49:31.906Z,30
2017-09-21T14:50:40.925Z,30
2017-09-21T14:51:49.940Z,30
2017-09-21T14:52:59.597Z,30
2017-09-21T14:54:08.614Z,30
2017-09-21T14:55:17.632Z,30
2017-09-21T14:56:26.648Z,30
2017-09-21T14:57:35.662Z,30
2017-09-21T14:58:45.320Z,25
2017-09-21T14:59:54.338Z,25
2017-09-21T15:01:03.364Z,25
2017-09-21T15:02:12.383Z,25
2017-09-21T15:03:21.716Z,25
2017-09-21T15:04:31.380Z,25
2017-09-21T15:05:40.397Z,25
2017-09-21T15:06:49.094Z,25
2017-09-21T15:07:58.430Z,25
2017-09-21T15:09:07.126Z,25
2017-09-21T15:10:15.823Z,25
2017-09-21T15:11:25.485Z,25
2017-09-21T15:12:34.182Z,25
2017-09-21T15:13:43.521Z,20
2017-09-21T15:14:53.177Z,20
2017-09-21T15:16:01.874Z,20
2017-09-21T15:17:10.894Z,20
2017-09-21T15:18:20.230Z,20
2017-09-21T15:19:28.928Z,20
2017-09-21T15:20:37.620Z,20
2017-09-21T15:21:46.321Z,20
2017-09-21T15:22:56.316Z,20
2017-09-21T15:24:05.336Z,20
2017-09-21T15:25:14.351Z,20
2017-09-21T15:26:23.691Z,20
2017-09-21T15:27:32.388Z,20
2017-09-21T15:28:41.086Z,20
2017-09-21T15:29:50.739Z,20
2017-09-21T15:30:59.762Z,20
2017-09-21T15:32:09.093Z,20
2017-09-21T15:33:18.109Z,20
2017-09-21T15:34:26.804Z,20
2017-09-21T15:35:35.502Z,20
2017-09-21T15:36:45.166Z,20
2017-09-21T15:37:54.183Z,20
2017-09-21T15:39:03.202Z,20
2017-09-21T15:40:12.225Z,20
2017-09-21T15:41:21.562Z,20
2017-09-21T15:42:30.911Z,20
2017-09-21T15:43:39.926Z,15
2017-09-21T15:44:48.943Z,15
2017-09-21T15:45:58.607Z,15
2017-09-21T15:47:08.271Z,15
2017-09-21T15:48:17.606Z,15
2017-09-21T15:49:26.625Z,15
2017-09-21T15:50:35.642Z,15
2017-09-21T15:51:44.978Z,15
2017-09-21T15:52:53.675Z,15
2017-09-21T15:54:02.374Z,15
2017-09-21T15:55:11.713Z,15
2017-09-21T15:56:21.047Z,15
2017-09-21T15:57:29.745Z,15
2017-09-21T15:58:38.762Z,15
2017-09-21T15:59:48.733Z,15
2017-09-21T16:00:57.751Z,15
2017-09-21T16:02:06.451Z,15
2017-09-21T16:03:15.796Z,15
2017-09-21T16:04:25.133Z,15
2017-09-21T16:05:34.465Z,15
2017-09-21T16:06:43.162Z,15
2017-09-21T16:07:52.180Z,15
2017-09-21T16:09:01.514Z,15
2017-09-21T16:10:10.849Z,15
2017-09-21T16:11:19.874Z,15
2017-09-21T16:12:29.854Z,15
2017-09-21T16:13:38.867Z,15
2017-09-21T16:14:47.883Z,15
2017-09-21T16:15:56.902Z,10
2017-09-21T16:17:05.917Z,10
2017-09-21T16:18:15.263Z,10
2017-09-21T16:19:24.599Z,10
2017-09-21T16:20:33.935Z,10
2017-09-21T16:21:43.272Z,10
2017-09-21T16:22:52.618Z,10
2017-09-21T16:24:01.960Z,10